sensor_id;sensor_type;location;lat;lon;timestamp;pressure;altitude;pressure_sealevel;temperature;humidity
42125;BME280;27787;44.594;11.046;2023-02-12T00:01:24;102750.25;;;3.81;50.32
42125;BME280;27787;44.594;11.046;2023-02-12T00:04:08;102751.66;;;3.90;49.75
42125;BME280;27787;44.594;11.046;2023-02-12T00:06:53;102745.22;;;3.84;49.88
42125;BME280;27787;44.594;11.046;2023-02-12T00:09:37;102746.22;;;3.73;50.36
42125;BME280;27787;44.594;11.046;2023-02-12T00:12:21;102732.75;;;3.54;51.31
42125;BME280;27787;44.594;11.046;2023-02-12T00:15:05;102740.22;;;3.36;52.28
42125;BME280;27787;44.594;11.046;2023-02-12T00:17:49;102740.72;;;3.31;51.95
42125;BME280;27787;44.594;11.046;2023-02-12T00:20:33;102734.31;;;3.39;51.53
42125;BME280;27787;44.594;11.046;2023-02-12T00:23:17;102732.03;;;3.57;51.13
42125;BME280;27787;44.594;11.046;2023-02-12T00:26:06;102733.16;;;3.73;49.97
42125;BME280;27787;44.594;11.046;2023-02-12T00:28:51;102740.50;;;3.66;50.14
42125;BME280;27787;44.594;11.046;2023-02-12T00:31:35;102745.47;;;3.49;50.92
42125;BME280;27787;44.594;11.046;2023-02-12T00:34:20;102751.78;;;3.40;51.34
42125;BME280;27787;44.594;11.046;2023-02-12T00:37:04;102756.97;;;3.27;51.63
42125;BME280;27787;44.594;11.046;2023-02-12T00:39:48;102760.09;;;3.09;52.88
42125;BME280;27787;44.594;11.046;2023-02-12T00:42:32;102744.72;;;3.01;53.29
42125;BME280;27787;44.594;11.046;2023-02-12T00:45:16;102746.19;;;2.97;52.78
42125;BME280;27787;44.594;11.046;2023-02-12T00:48:01;102751.06;;;3.04;51.89
42125;BME280;27787;44.594;11.046;2023-02-12T00:50:47;102748.34;;;3.03;51.94
42125;BME280;27787;44.594;11.046;2023-02-12T00:53:32;102746.88;;;2.94;52.61
42125;BME280;27787;44.594;11.046;2023-02-12T00:56:16;102757.88;;;3.02;52.85
42125;BME280;27787;44.594;11.046;2023-02-12T00:59:00;102752.38;;;3.11;51.74
42125;BME280;27787;44.594;11.046;2023-02-12T01:01:44;102752.88;;;3.05;52.48
42125;BME280;27787;44.594;11.046;2023-02-12T01:04:28;102749.25;;;3.03;52.00
42125;BME280;27787;44.594;11.046;2023-02-12T01:07:12;102752.16;;;3.08;51.41
42125;BME280;27787;44.594;11.046;2023-02-12T01:09:56;102748.44;;;3.04;51.42
42125;BME280;27787;44.594;11.046;2023-02-12T01:12:40;102749.19;;;2.90;53.05
42125;BME280;27787;44.594;11.046;2023-02-12T01:15:25;102753.66;;;2.79;53.62
42125;BME280;27787;44.594;11.046;2023-02-12T01:18:09;102756.28;;;2.67;54.08
42125;BME280;27787;44.594;11.046;2023-02-12T01:20:53;102756.66;;;2.60;54.18
42125;BME280;27787;44.594;11.046;2023-02-12T01:23:40;102759.47;;;2.63;53.49
42125;BME280;27787;44.594;11.046;2023-02-12T01:26:26;102760.69;;;2.69;53.62
42125;BME280;27787;44.594;11.046;2023-02-12T01:29:11;102758.66;;;2.76;53.00
42125;BME280;27787;44.594;11.046;2023-02-12T01:31:56;102753.91;;;2.95;52.21
42125;BME280;27787;44.594;11.046;2023-02-12T01:34:39;102750.19;;;3.17;50.34
42125;BME280;27787;44.594;11.046;2023-02-12T01:37:23;102751.34;;;3.34;49.22
42125;BME280;27787;44.594;11.046;2023-02-12T01:40:12;102743.19;;;3.54;48.81
42125;BME280;27787;44.594;11.046;2023-02-12T01:43:01;102738.56;;;3.76;47.90
42125;BME280;27787;44.594;11.046;2023-02-12T01:45:48;102733.59;;;3.93;47.09
42125;BME280;27787;44.594;11.046;2023-02-12T01:48:37;102727.75;;;3.97;47.68
42125;BME280;27787;44.594;11.046;2023-02-12T01:51:23;102718.09;;;3.96;46.81
42125;BME280;27787;44.594;11.046;2023-02-12T01:54:09;102722.91;;;4.03;46.85
42125;BME280;27787;44.594;11.046;2023-02-12T01:56:55;102726.03;;;4.10;46.40
42125;BME280;27787;44.594;11.046;2023-02-12T01:59:40;102725.53;;;4.03;47.09
42125;BME280;27787;44.594;11.046;2023-02-12T02:02:26;102717.41;;;3.98;46.66
42125;BME280;27787;44.594;11.046;2023-02-12T02:05:11;102710.16;;;3.94;46.36
42125;BME280;27787;44.594;11.046;2023-02-12T02:07:58;102710.47;;;3.99;45.90
42125;BME280;27787;44.594;11.046;2023-02-12T02:10:43;102706.66;;;4.07;45.84
42125;BME280;27787;44.594;11.046;2023-02-12T02:13:27;102709.63;;;4.13;44.96
42125;BME280;27787;44.594;11.046;2023-02-12T02:16:33;102705.75;;;4.06;44.89
42125;BME280;27787;44.594;11.046;2023-02-12T02:23:04;102695.06;;;4.17;44.69
42125;BME280;27787;44.594;11.046;2023-02-12T02:32:02;102707.22;;;4.03;45.51
42125;BME280;27787;44.594;11.046;2023-02-12T02:37:46;102708.09;;;3.50;48.27
42125;BME280;27787;44.594;11.046;2023-02-12T02:40:50;102709.91;;;3.51;48.16
42125;BME280;27787;44.594;11.046;2023-02-12T02:43:54;102710.44;;;3.59;47.21
42125;BME280;27787;44.594;11.046;2023-02-12T02:49:35;102705.41;;;3.49;47.52
42125;BME280;27787;44.594;11.046;2023-02-12T02:52:47;102698.19;;;3.45;47.25
42125;BME280;27787;44.594;11.046;2023-02-12T02:56:00;102699.81;;;3.56;46.68
42125;BME280;27787;44.594;11.046;2023-02-12T02:58:54;102700.28;;;3.50;46.95
42125;BME280;27787;44.594;11.046;2023-02-12T03:05:07;102690.31;;;2.93;49.30
42125;BME280;27787;44.594;11.046;2023-02-12T03:07:59;102686.69;;;2.66;50.15
42125;BME280;27787;44.594;11.046;2023-02-12T03:10:51;102686.59;;;2.65;49.65
42125;BME280;27787;44.594;11.046;2023-02-12T03:13:45;102683.78;;;2.87;48.16
42125;BME280;27787;44.594;11.046;2023-02-12T03:16:34;102671.28;;;3.08;47.38
42125;BME280;27787;44.594;11.046;2023-02-12T03:19:24;102666.31;;;3.24;46.85
42125;BME280;27787;44.594;11.046;2023-02-12T03:22:11;102671.34;;;3.34;46.21
42125;BME280;27787;44.594;11.046;2023-02-12T03:25:32;102655.59;;;3.46;45.65
42125;BME280;27787;44.594;11.046;2023-02-12T03:28:33;102666.06;;;3.59;44.98
42125;BME280;27787;44.594;11.046;2023-02-12T03:31:33;102670.19;;;3.69;44.62
42125;BME280;27787;44.594;11.046;2023-02-12T03:34:40;102664.44;;;3.74;44.40
42125;BME280;27787;44.594;11.046;2023-02-12T03:37:46;102663.16;;;3.81;43.98
42125;BME280;27787;44.594;11.046;2023-02-12T03:40:55;102673.00;;;3.85;43.73
42125;BME280;27787;44.594;11.046;2023-02-12T03:50:59;102688.28;;;3.79;44.10
42125;BME280;27787;44.594;11.046;2023-02-12T03:53:45;102694.28;;;3.65;44.53
42125;BME280;27787;44.594;11.046;2023-02-12T03:56:40;102690.06;;;3.53;45.02
42125;BME280;27787;44.594;11.046;2023-02-12T03:59:27;102675.50;;;3.57;44.56
42125;BME280;27787;44.594;11.046;2023-02-12T04:02:13;102672.47;;;3.64;43.71
42125;BME280;27787;44.594;11.046;2023-02-12T04:05:03;102669.09;;;3.65;44.00
42125;BME280;27787;44.594;11.046;2023-02-12T04:07:48;102671.91;;;3.68;44.29
42125;BME280;27787;44.594;11.046;2023-02-12T04:10:38;102676.50;;;3.72;44.03
42125;BME280;27787;44.594;11.046;2023-02-12T04:16:24;102659.41;;;3.64;44.27
42125;BME280;27787;44.594;11.046;2023-02-12T04:19:16;102660.22;;;3.63;44.42
42125;BME280;27787;44.594;11.046;2023-02-12T04:25:17;102651.09;;;3.70;43.99
42125;BME280;27787;44.594;11.046;2023-02-12T04:40:49;102660.59;;;3.30;45.35
42125;BME280;27787;44.594;11.046;2023-02-12T04:43:35;102661.09;;;3.37;45.33
42125;BME280;27787;44.594;11.046;2023-02-12T04:46:19;102664.84;;;3.41;45.65
42125;BME280;27787;44.594;11.046;2023-02-12T04:49:03;102652.91;;;3.44;44.90
42125;BME280;27787;44.594;11.046;2023-02-12T04:51:48;102653.09;;;3.47;44.67
42125;BME280;27787;44.594;11.046;2023-02-12T04:54:32;102648.97;;;3.51;44.62
42125;BME280;27787;44.594;11.046;2023-02-12T04:57:17;102647.59;;;3.56;44.34
42125;BME280;27787;44.594;11.046;2023-02-12T05:00:01;102644.66;;;3.51;44.85
42125;BME280;27787;44.594;11.046;2023-02-12T05:02:45;102645.34;;;3.49;44.40
42125;BME280;27787;44.594;11.046;2023-02-12T05:05:29;102645.16;;;3.46;44.54
42125;BME280;27787;44.594;11.046;2023-02-12T05:08:13;102641.75;;;3.47;44.41
42125;BME280;27787;44.594;11.046;2023-02-12T05:11:02;102641.84;;;3.48;44.69
42125;BME280;27787;44.594;11.046;2023-02-12T05:13:50;102648.28;;;3.53;44.46
42125;BME280;27787;44.594;11.046;2023-02-12T05:16:35;102652.09;;;3.59;43.96
42125;BME280;27787;44.594;11.046;2023-02-12T05:19:19;102660.34;;;3.65;43.40
42125;BME280;27787;44.594;11.046;2023-02-12T05:22:04;102679.13;;;3.72;43.29
42125;BME280;27787;44.594;11.046;2023-02-12T05:24:48;102684.75;;;3.65;43.04
42125;BME280;27787;44.594;11.046;2023-02-12T05:27:32;102685.22;;;3.46;44.04
42125;BME280;27787;44.594;11.046;2023-02-12T05:30:16;102678.38;;;3.35;44.45
42125;BME280;27787;44.594;11.046;2023-02-12T05:33:00;102669.25;;;3.29;44.42
42125;BME280;27787;44.594;11.046;2023-02-12T05:35:44;102671.31;;;3.21;44.32
42125;BME280;27787;44.594;11.046;2023-02-12T05:38:28;102673.00;;;3.07;45.25
42125;BME280;27787;44.594;11.046;2023-02-12T05:41:14;102672.16;;;2.95;45.53
42125;BME280;27787;44.594;11.046;2023-02-12T05:43:59;102674.88;;;2.96;45.69
42125;BME280;27787;44.594;11.046;2023-02-12T05:46:43;102671.56;;;2.99;45.40
42125;BME280;27787;44.594;11.046;2023-02-12T05:49:27;102674.25;;;2.87;45.61
42125;BME280;27787;44.594;11.046;2023-02-12T05:52:11;102677.28;;;2.69;47.17
42125;BME280;27787;44.594;11.046;2023-02-12T05:54:55;102672.25;;;2.47;47.87
42125;BME280;27787;44.594;11.046;2023-02-12T05:57:39;102661.88;;;2.35;47.77
42125;BME280;27787;44.594;11.046;2023-02-12T06:00:23;102658.03;;;2.30;48.41
42125;BME280;27787;44.594;11.046;2023-02-12T06:03:07;102652.09;;;2.44;47.69
42125;BME280;27787;44.594;11.046;2023-02-12T06:05:51;102656.19;;;2.65;47.30
42125;BME280;27787;44.594;11.046;2023-02-12T06:08:36;102654.84;;;2.84;46.64
42125;BME280;27787;44.594;11.046;2023-02-12T06:11:20;102649.69;;;2.97;46.35
42125;BME280;27787;44.594;11.046;2023-02-12T06:14:06;102655.75;;;3.09;45.75
42125;BME280;27787;44.594;11.046;2023-02-12T06:16:51;102654.38;;;3.28;44.85
42125;BME280;27787;44.594;11.046;2023-02-12T06:19:36;102653.41;;;3.39;44.74
42125;BME280;27787;44.594;11.046;2023-02-12T06:22:20;102649.38;;;3.44;44.55
42125;BME280;27787;44.594;11.046;2023-02-12T06:25:04;102645.34;;;3.49;44.19
42125;BME280;27787;44.594;11.046;2023-02-12T06:27:48;102650.91;;;3.53;43.73
42125;BME280;27787;44.594;11.046;2023-02-12T06:30:33;102664.06;;;3.55;43.77
42125;BME280;27787;44.594;11.046;2023-02-12T06:33:17;102672.69;;;3.54;44.02
42125;BME280;27787;44.594;11.046;2023-02-12T06:36:03;102672.44;;;3.38;44.57
42125;BME280;27787;44.594;11.046;2023-02-12T06:38:48;102697.22;;;3.18;45.54
42125;BME280;27787;44.594;11.046;2023-02-12T06:41:33;102709.22;;;3.03;45.85
42125;BME280;27787;44.594;11.046;2023-02-12T06:44:17;102722.16;;;3.01;45.98
42125;BME280;27787;44.594;11.046;2023-02-12T06:47:02;102716.28;;;2.92;46.56
42125;BME280;27787;44.594;11.046;2023-02-12T06:49:46;102720.44;;;2.77;47.11
42125;BME280;27787;44.594;11.046;2023-02-12T06:52:30;102712.16;;;2.71;47.58
42125;BME280;27787;44.594;11.046;2023-02-12T06:55:14;102712.66;;;2.65;47.73
42125;BME280;27787;44.594;11.046;2023-02-12T06:57:59;102725.25;;;2.59;48.09
42125;BME280;27787;44.594;11.046;2023-02-12T07:00:43;102723.44;;;2.58;48.17
42125;BME280;27787;44.594;11.046;2023-02-12T07:03:27;102714.00;;;2.60;48.46
42125;BME280;27787;44.594;11.046;2023-02-12T07:06:11;102720.16;;;2.60;48.47
42125;BME280;27787;44.594;11.046;2023-02-12T07:08:56;102726.16;;;2.59;48.59
42125;BME280;27787;44.594;11.046;2023-02-12T07:11:40;102730.34;;;2.57;48.89
42125;BME280;27787;44.594;11.046;2023-02-12T07:14:24;102737.16;;;2.55;49.38
42125;BME280;27787;44.594;11.046;2023-02-12T07:17:11;102741.13;;;2.62;48.83
42125;BME280;27787;44.594;11.046;2023-02-12T07:19:55;102746.75;;;2.68;49.13
42125;BME280;27787;44.594;11.046;2023-02-12T07:22:39;102743.09;;;2.78;48.79
42125;BME280;27787;44.594;11.046;2023-02-12T07:25:23;102745.78;;;2.91;48.49
42125;BME280;27787;44.594;11.046;2023-02-12T07:28:08;102747.78;;;2.95;48.51
42125;BME280;27787;44.594;11.046;2023-02-12T07:30:52;102743.81;;;3.00;48.58
42125;BME280;27787;44.594;11.046;2023-02-12T07:33:38;102754.66;;;3.06;48.24
42125;BME280;27787;44.594;11.046;2023-02-12T07:36:24;102757.28;;;3.06;49.52
42125;BME280;27787;44.594;11.046;2023-02-12T07:39:10;102758.09;;;3.05;50.30
42125;BME280;27787;44.594;11.046;2023-02-12T07:41:56;102754.66;;;3.06;50.68
42125;BME280;27787;44.594;11.046;2023-02-12T07:44:40;102777.00;;;3.14;50.77
42125;BME280;27787;44.594;11.046;2023-02-12T07:47:25;102775.44;;;3.30;50.70
42125;BME280;27787;44.594;11.046;2023-02-12T07:50:09;102769.16;;;3.39;50.63
42125;BME280;27787;44.594;11.046;2023-02-12T07:52:53;102763.28;;;3.55;50.38
42125;BME280;27787;44.594;11.046;2023-02-12T07:55:37;102767.88;;;3.59;49.91
42125;BME280;27787;44.594;11.046;2023-02-12T07:58:21;102767.63;;;3.68;49.68
42125;BME280;27787;44.594;11.046;2023-02-12T08:01:12;102770.44;;;3.71;49.53
42125;BME280;27787;44.594;11.046;2023-02-12T08:04:02;102761.19;;;3.76;49.54
42125;BME280;27787;44.594;11.046;2023-02-12T08:06:48;102758.91;;;3.80;49.23
42125;BME280;27787;44.594;11.046;2023-02-12T08:09:32;102765.41;;;3.87;49.10
42125;BME280;27787;44.594;11.046;2023-02-12T08:12:17;102764.44;;;3.98;48.51
42125;BME280;27787;44.594;11.046;2023-02-12T08:15:01;102760.81;;;4.09;48.39
42125;BME280;27787;44.594;11.046;2023-02-12T08:17:45;102761.09;;;4.14;48.10
42125;BME280;27787;44.594;11.046;2023-02-12T08:20:29;102770.16;;;4.19;47.92
42125;BME280;27787;44.594;11.046;2023-02-12T08:23:16;102784.53;;;4.26;47.85
42125;BME280;27787;44.594;11.046;2023-02-12T08:26:12;102785.94;;;4.34;47.79
42125;BME280;27787;44.594;11.046;2023-02-12T08:31:45;102800.28;;;4.54;47.44
42125;BME280;27787;44.594;11.046;2023-02-12T08:34:32;102801.31;;;4.69;47.47
42125;BME280;27787;44.594;11.046;2023-02-12T08:37:17;102816.53;;;4.89;47.75
42125;BME280;27787;44.594;11.046;2023-02-12T08:40:01;102820.00;;;5.03;46.81
42125;BME280;27787;44.594;11.046;2023-02-12T08:42:45;102826.94;;;5.16;46.50
42125;BME280;27787;44.594;11.046;2023-02-12T08:45:29;102822.53;;;5.29;45.96
42125;BME280;27787;44.594;11.046;2023-02-12T08:48:13;102838.03;;;5.40;45.93
42125;BME280;27787;44.594;11.046;2023-02-12T08:51:09;102839.19;;;5.45;45.73
42125;BME280;27787;44.594;11.046;2023-02-12T08:53:56;102831.00;;;5.53;45.70
42125;BME280;27787;44.594;11.046;2023-02-12T08:56:41;102836.41;;;5.56;45.07
42125;BME280;27787;44.594;11.046;2023-02-12T08:59:26;102840.25;;;5.61;45.11
42125;BME280;27787;44.594;11.046;2023-02-12T09:02:10;102834.47;;;5.67;45.16
42125;BME280;27787;44.594;11.046;2023-02-12T09:04:55;102830.22;;;5.69;45.04
42125;BME280;27787;44.594;11.046;2023-02-12T09:07:39;102822.53;;;5.72;44.90
42125;BME280;27787;44.594;11.046;2023-02-12T09:10:23;102808.72;;;5.75;44.59
42125;BME280;27787;44.594;11.046;2023-02-12T09:13:08;102811.88;;;5.84;44.79
42125;BME280;27787;44.594;11.046;2023-02-12T09:15:52;102811.75;;;5.96;44.86
42125;BME280;27787;44.594;11.046;2023-02-12T09:18:37;102815.72;;;6.04;44.35
42125;BME280;27787;44.594;11.046;2023-02-12T09:21:22;102819.50;;;6.09;44.95
42125;BME280;27787;44.594;11.046;2023-02-12T09:24:07;102823.31;;;6.14;45.47
42125;BME280;27787;44.594;11.046;2023-02-12T09:26:51;102829.72;;;6.19;45.35
42125;BME280;27787;44.594;11.046;2023-02-12T09:29:35;102829.06;;;6.23;45.41
42125;BME280;27787;44.594;11.046;2023-02-12T09:32:20;102824.22;;;6.29;44.92
42125;BME280;27787;44.594;11.046;2023-02-12T09:35:04;102826.25;;;6.35;45.07
42125;BME280;27787;44.594;11.046;2023-02-12T09:37:48;102823.28;;;6.43;44.82
42125;BME280;27787;44.594;11.046;2023-02-12T09:40:41;102817.91;;;6.57;44.53
42125;BME280;27787;44.594;11.046;2023-02-12T09:43:38;102825.56;;;6.68;44.17
42125;BME280;27787;44.594;11.046;2023-02-12T09:46:29;102822.00;;;6.83;43.72
42125;BME280;27787;44.594;11.046;2023-02-12T09:52:18;102826.44;;;7.00;43.39
42125;BME280;27787;44.594;11.046;2023-02-12T09:55:03;102820.72;;;7.07;42.52
42125;BME280;27787;44.594;11.046;2023-02-12T09:57:48;102811.78;;;7.20;41.12
42125;BME280;27787;44.594;11.046;2023-02-12T10:00:32;102817.50;;;7.29;41.23
42125;BME280;27787;44.594;11.046;2023-02-12T10:03:17;102825.97;;;7.39;41.47
42125;BME280;27787;44.594;11.046;2023-02-12T10:06:04;102831.88;;;7.52;40.21
42125;BME280;27787;44.594;11.046;2023-02-12T10:12:02;102828.44;;;7.69;40.33
42125;BME280;27787;44.594;11.046;2023-02-12T10:15:00;102831.53;;;7.78;40.99
42125;BME280;27787;44.594;11.046;2023-02-12T10:18:16;102823.28;;;7.88;41.64
42125;BME280;27787;44.594;11.046;2023-02-12T10:24:47;102844.53;;;8.09;41.39
42125;BME280;27787;44.594;11.046;2023-02-12T10:27:42;102840.47;;;8.16;41.69
42125;BME280;27787;44.594;11.046;2023-02-12T10:30:48;102830.50;;;8.26;41.33
42125;BME280;27787;44.594;11.046;2023-02-12T10:33:37;102834.19;;;8.30;41.63
42125;BME280;27787;44.594;11.046;2023-02-12T10:36:43;102826.78;;;8.39;43.50
42125;BME280;27787;44.594;11.046;2023-02-12T10:39:33;102827.38;;;8.51;43.91
42125;BME280;27787;44.594;11.046;2023-02-12T10:42:44;102828.88;;;8.64;44.72
42125;BME280;27787;44.594;11.046;2023-02-12T10:45:31;102826.25;;;8.64;45.11
42125;BME280;27787;44.594;11.046;2023-02-12T10:48:20;102816.63;;;8.65;45.15
42125;BME280;27787;44.594;11.046;2023-02-12T10:53:52;102813.19;;;8.85;45.34
42125;BME280;27787;44.594;11.046;2023-02-12T10:56:36;102810.47;;;9.01;44.45
42125;BME280;27787;44.594;11.046;2023-02-12T10:59:22;102809.00;;;9.08;44.33
42125;BME280;27787;44.594;11.046;2023-02-12T11:02:17;102798.53;;;9.09;44.67
42125;BME280;27787;44.594;11.046;2023-02-12T11:05:21;102805.06;;;9.18;44.51
42125;BME280;27787;44.594;11.046;2023-02-12T11:08:07;102797.94;;;9.15;44.35
42125;BME280;27787;44.594;11.046;2023-02-12T11:11:18;102795.50;;;9.20;45.05
42125;BME280;27787;44.594;11.046;2023-02-12T11:16:55;102780.59;;;9.20;45.52
42125;BME280;27787;44.594;11.046;2023-02-12T11:19:40;102782.81;;;9.30;45.75
42125;BME280;27787;44.594;11.046;2023-02-12T11:22:24;102767.59;;;9.44;45.78
42125;BME280;27787;44.594;11.046;2023-02-12T11:25:14;102782.47;;;9.63;44.96
42125;BME280;27787;44.594;11.046;2023-02-12T11:33:42;102772.63;;;9.78;44.69
42125;BME280;27787;44.594;11.046;2023-02-12T11:36:26;102768.25;;;9.79;44.63
42125;BME280;27787;44.594;11.046;2023-02-12T11:39:32;102770.88;;;9.79;44.63
42125;BME280;27787;44.594;11.046;2023-02-12T11:42:19;102773.53;;;9.79;44.08
42125;BME280;27787;44.594;11.046;2023-02-12T11:45:06;102760.28;;;9.77;44.03
42125;BME280;27787;44.594;11.046;2023-02-12T11:47:59;102761.53;;;9.87;43.32
42125;BME280;27787;44.594;11.046;2023-02-12T11:50:48;102764.47;;;9.93;43.43
42125;BME280;27787;44.594;11.046;2023-02-12T11:53:41;102761.94;;;9.96;43.06
42125;BME280;27787;44.594;11.046;2023-02-12T11:56:43;102762.66;;;9.92;43.11
42125;BME280;27787;44.594;11.046;2023-02-12T11:59:42;102764.97;;;10.05;41.45
42125;BME280;27787;44.594;11.046;2023-02-12T12:02:31;102763.53;;;10.13;39.89
42125;BME280;27787;44.594;11.046;2023-02-12T12:05:20;102769.75;;;10.15;40.51
42125;BME280;27787;44.594;11.046;2023-02-12T12:11:36;102764.13;;;10.27;40.72
42125;BME280;27787;44.594;11.046;2023-02-12T12:17:59;102762.78;;;10.16;40.27
42125;BME280;27787;44.594;11.046;2023-02-12T12:25:03;102762.38;;;10.27;38.13
42125;BME280;27787;44.594;11.046;2023-02-12T12:34:04;102763.03;;;10.43;36.81
42125;BME280;27787;44.594;11.046;2023-02-12T12:37:22;102752.34;;;10.62;36.84
42125;BME280;27787;44.594;11.046;2023-02-12T12:40:47;102747.00;;;10.60;37.01
42125;BME280;27787;44.594;11.046;2023-02-12T13:16:20;102752.34;;;10.84;37.39
42125;BME280;27787;44.594;11.046;2023-02-12T13:19:17;102744.34;;;10.83;37.59
42125;BME280;27787;44.594;11.046;2023-02-12T13:22:16;102747.00;;;10.83;37.98
42125;BME280;27787;44.594;11.046;2023-02-12T13:25:24;102746.28;;;10.87;38.69
42125;BME280;27787;44.594;11.046;2023-02-12T13:28:14;102751.72;;;10.91;39.09
42125;BME280;27787;44.594;11.046;2023-02-12T13:31:05;102749.22;;;10.95;39.29
42125;BME280;27787;44.594;11.046;2023-02-12T13:33:54;102752.81;;;10.97;39.42
42125;BME280;27787;44.594;11.046;2023-02-12T13:36:40;102751.06;;;10.97;39.64
42125;BME280;27787;44.594;11.046;2023-02-12T13:39:35;102754.72;;;11.01;39.74
42125;BME280;27787;44.594;11.046;2023-02-12T13:45:33;102758.50;;;11.07;40.01
42125;BME280;27787;44.594;11.046;2023-02-12T13:48:25;102747.97;;;11.09;40.12
42125;BME280;27787;44.594;11.046;2023-02-12T13:51:35;102748.09;;;11.12;39.73
42125;BME280;27787;44.594;11.046;2023-02-12T13:54:55;102748.94;;;11.11;39.51
42125;BME280;27787;44.594;11.046;2023-02-12T13:57:41;102754.31;;;11.14;39.91
42125;BME280;27787;44.594;11.046;2023-02-12T14:04:24;102748.31;;;11.18;40.57
42125;BME280;27787;44.594;11.046;2023-02-12T14:07:12;102750.22;;;11.22;40.33
42125;BME280;27787;44.594;11.046;2023-02-12T14:12:40;102740.56;;;11.22;40.60
42125;BME280;27787;44.594;11.046;2023-02-12T14:15:29;102737.97;;;11.24;40.65
42125;BME280;27787;44.594;11.046;2023-02-12T14:18:33;102747.00;;;11.31;40.55
42125;BME280;27787;44.594;11.046;2023-02-12T14:30:39;102733.56;;;11.48;40.92
42125;BME280;27787;44.594;11.046;2023-02-12T14:33:25;102738.16;;;11.54;40.72
42125;BME280;27787;44.594;11.046;2023-02-12T14:41:41;102735.19;;;11.70;40.66
42125;BME280;27787;44.594;11.046;2023-02-12T14:50:30;102735.81;;;11.87;40.03
42125;BME280;27787;44.594;11.046;2023-02-12T14:53:28;102743.03;;;11.93;39.99
42125;BME280;27787;44.594;11.046;2023-02-12T14:56:17;102743.19;;;11.97;39.90
42125;BME280;27787;44.594;11.046;2023-02-12T14:59:02;102747.81;;;12.03;39.87
42125;BME280;27787;44.594;11.046;2023-02-12T15:01:48;102751.53;;;12.09;39.46
42125;BME280;27787;44.594;11.046;2023-02-12T15:04:37;102750.81;;;12.14;39.65
42125;BME280;27787;44.594;11.046;2023-02-12T15:07:43;102762.41;;;12.17;39.68
42125;BME280;27787;44.594;11.046;2023-02-12T15:10:33;102752.84;;;12.22;39.71
42125;BME280;27787;44.594;11.046;2023-02-12T15:13:30;102755.63;;;12.25;39.72
42125;BME280;27787;44.594;11.046;2023-02-12T15:16:28;102760.16;;;12.29;39.70
42125;BME280;27787;44.594;11.046;2023-02-12T15:22:31;102769.97;;;12.33;39.14
42125;BME280;27787;44.594;11.046;2023-02-12T15:25:31;102768.22;;;12.34;39.09
42125;BME280;27787;44.594;11.046;2023-02-12T15:28:24;102768.28;;;12.35;39.20
42125;BME280;27787;44.594;11.046;2023-02-12T15:31:18;102770.03;;;12.35;39.09
42125;BME280;27787;44.594;11.046;2023-02-12T15:34:33;102768.22;;;12.34;39.24
42125;BME280;27787;44.594;11.046;2023-02-12T15:37:29;102775.28;;;12.33;39.06
42125;BME280;27787;44.594;11.046;2023-02-12T15:40:36;102766.25;;;12.27;39.11
42125;BME280;27787;44.594;11.046;2023-02-12T15:43:27;102772.22;;;12.21;38.96
42125;BME280;27787;44.594;11.046;2023-02-12T15:46:16;102768.53;;;12.16;38.94
42125;BME280;27787;44.594;11.046;2023-02-12T15:49:17;102774.63;;;12.14;38.87
42125;BME280;27787;44.594;11.046;2023-02-12T15:52:14;102779.81;;;12.10;38.75
42125;BME280;27787;44.594;11.046;2023-02-12T15:55:02;102776.25;;;12.10;38.68
42125;BME280;27787;44.594;11.046;2023-02-12T15:57:55;102778.88;;;12.08;38.89
42125;BME280;27787;44.594;11.046;2023-02-12T16:00:42;102778.75;;;12.05;39.01
42125;BME280;27787;44.594;11.046;2023-02-12T16:03:30;102776.03;;;12.02;38.99
42125;BME280;27787;44.594;11.046;2023-02-12T16:06:16;102782.06;;;11.98;39.27
42125;BME280;27787;44.594;11.046;2023-02-12T16:09:15;102788.09;;;11.94;39.18
42125;BME280;27787;44.594;11.046;2023-02-12T16:12:03;102788.78;;;11.89;39.36
42125;BME280;27787;44.594;11.046;2023-02-12T16:14:50;102785.88;;;11.81;39.89
42125;BME280;27787;44.594;11.046;2023-02-12T16:17:36;102792.63;;;11.73;39.65
42125;BME280;27787;44.594;11.046;2023-02-12T16:20:23;102796.69;;;11.63;39.93
42125;BME280;27787;44.594;11.046;2023-02-12T16:23:11;102795.38;;;11.52;40.17
42125;BME280;27787;44.594;11.046;2023-02-12T16:25:57;102793.19;;;11.40;40.09
42125;BME280;27787;44.594;11.046;2023-02-12T16:28:45;102807.75;;;11.29;40.42
42125;BME280;27787;44.594;11.046;2023-02-12T16:31:31;102805.69;;;11.20;40.57
42125;BME280;27787;44.594;11.046;2023-02-12T16:34:26;102810.63;;;11.11;40.79
42125;BME280;27787;44.594;11.046;2023-02-12T16:37:41;102813.63;;;10.98;41.28
42125;BME280;27787;44.594;11.046;2023-02-12T16:40:32;102817.50;;;10.84;41.64
42125;BME280;27787;44.594;11.046;2023-02-12T16:43:25;102816.94;;;10.70;42.12
42125;BME280;27787;44.594;11.046;2023-02-12T16:46:10;102820.16;;;10.63;42.51
42125;BME280;27787;44.594;11.046;2023-02-12T16:48:57;102821.75;;;10.58;42.70
42125;BME280;27787;44.594;11.046;2023-02-12T16:51:47;102821.47;;;10.52;43.16
42125;BME280;27787;44.594;11.046;2023-02-12T16:54:33;102831.91;;;10.49;43.50
42125;BME280;27787;44.594;11.046;2023-02-12T16:57:18;102831.69;;;10.43;44.09
42125;BME280;27787;44.594;11.046;2023-02-12T17:00:04;102840.22;;;10.37;44.28
42125;BME280;27787;44.594;11.046;2023-02-12T17:02:54;102840.94;;;10.33;44.81
42125;BME280;27787;44.594;11.046;2023-02-12T17:05:40;102852.22;;;10.29;45.11
42125;BME280;27787;44.594;11.046;2023-02-12T17:08:26;102851.13;;;10.24;45.61
42125;BME280;27787;44.594;11.046;2023-02-12T17:11:10;102860.56;;;10.19;45.85
42125;BME280;27787;44.594;11.046;2023-02-12T17:13:55;102849.78;;;10.14;46.32